Terminal Aerodrome Forecast
Issued by NWS

Home | Current Version | Previous Version | Text Only | Print | Product List | Glossary On
Versions: 1 2 3 4 5 6 7 8 9 10 11 12
000
FTUS44 KEPZ 301700
TAFLRU
TAF
KLRU 301724Z 3018/3118 12011G18KT P6SM VCSH SCT015 OVC080
     FM302100 11012KT 6SM -RA OVC020
      TEMPO 3101/3105 3SM RA OVC015
     FM310500 15002KT 6SM -RA OVC015
     FM311400 16002KT P6SM VCSH BKN020 OVC100=

USA.gov is the U.S. government's official web portal to all federal, state and local government web resources and services.